sensor_id;sensor_type;location;lat;lon;timestamp;P1;durP1;ratioP1;P2;durP2;ratioP2
33902;SDS011;20194;50.950;5.346;2022-07-23T00:00:57;7.13;;;6.35;;
33902;SDS011;20194;50.950;5.346;2022-07-23T00:03:23;11.15;;;6.45;;
33902;SDS011;20194;50.950;5.346;2022-07-23T00:05:48;9.55;;;6.57;;
33902;SDS011;20194;50.950;5.346;2022-07-23T00:08:14;10.13;;;5.82;;
33902;SDS011;20194;50.950;5.346;2022-07-23T00:10:40;9.02;;;6.15;;
33902;SDS011;20194;50.950;5.346;2022-07-23T00:13:06;13.05;;;7.20;;
33902;SDS011;20194;50.950;5.346;2022-07-23T00:15:32;9.13;;;6.03;;
33902;SDS011;20194;50.950;5.346;2022-07-23T00:17:58;10.65;;;6.28;;
33902;SDS011;20194;50.950;5.346;2022-07-23T00:20:23;12.07;;;7.95;;
33902;SDS011;20194;50.950;5.346;2022-07-23T00:22:50;14.18;;;7.15;;
33902;SDS011;20194;50.950;5.346;2022-07-23T00:25:17;10.50;;;6.25;;
33902;SDS011;20194;50.950;5.346;2022-07-23T00:27:43;13.18;;;7.38;;
33902;SDS011;20194;50.950;5.346;2022-07-23T00:30:09;10.65;;;6.50;;
33902;SDS011;20194;50.950;5.346;2022-07-23T00:32:48;9.77;;;6.53;;
33902;SDS011;20194;50.950;5.346;2022-07-23T00:35:20;15.68;;;6.97;;
33902;SDS011;20194;50.950;5.346;2022-07-23T00:37:46;15.10;;;7.60;;
33902;SDS011;20194;50.950;5.346;2022-07-23T00:40:12;12.15;;;7.53;;
33902;SDS011;20194;50.950;5.346;2022-07-23T00:42:39;12.35;;;6.75;;
33902;SDS011;20194;50.950;5.346;2022-07-23T00:45:05;11.93;;;7.03;;
33902;SDS011;20194;50.950;5.346;2022-07-23T00:47:31;9.38;;;6.70;;
33902;SDS011;20194;50.950;5.346;2022-07-23T00:49:57;9.65;;;6.78;;
33902;SDS011;20194;50.950;5.346;2022-07-23T00:52:22;11.73;;;7.32;;
33902;SDS011;20194;50.950;5.346;2022-07-23T00:54:49;12.43;;;6.75;;
33902;SDS011;20194;50.950;5.346;2022-07-23T00:57:15;11.90;;;7.40;;
33902;SDS011;20194;50.950;5.346;2022-07-23T00:59:41;12.43;;;7.28;;
33902;SDS011;20194;50.950;5.346;2022-07-23T01:02:07;9.13;;;6.47;;
33902;SDS011;20194;50.950;5.346;2022-07-23T01:04:33;12.25;;;7.00;;
33902;SDS011;20194;50.950;5.346;2022-07-23T01:06:59;14.02;;;6.78;;
33902;SDS011;20194;50.950;5.346;2022-07-23T01:09:25;10.15;;;7.22;;
33902;SDS011;20194;50.950;5.346;2022-07-23T01:11:51;12.55;;;6.88;;
33902;SDS011;20194;50.950;5.346;2022-07-23T01:14:21;12.40;;;6.88;;
33902;SDS011;20194;50.950;5.346;2022-07-23T01:16:47;13.30;;;7.38;;
33902;SDS011;20194;50.950;5.346;2022-07-23T01:19:14;11.63;;;6.70;;
33902;SDS011;20194;50.950;5.346;2022-07-23T01:21:45;12.15;;;6.50;;
33902;SDS011;20194;50.950;5.346;2022-07-23T01:24:12;9.02;;;7.10;;
33902;SDS011;20194;50.950;5.346;2022-07-23T01:26:41;12.10;;;7.40;;
33902;SDS011;20194;50.950;5.346;2022-07-23T01:29:08;11.23;;;6.75;;
33902;SDS011;20194;50.950;5.346;2022-07-23T01:31:34;15.82;;;7.50;;
33902;SDS011;20194;50.950;5.346;2022-07-23T01:34:01;11.93;;;6.35;;
33902;SDS011;20194;50.950;5.346;2022-07-23T01:36:27;13.80;;;7.20;;
33902;SDS011;20194;50.950;5.346;2022-07-23T01:38:53;15.40;;;8.07;;
33902;SDS011;20194;50.950;5.346;2022-07-23T01:41:18;10.57;;;7.15;;
33902;SDS011;20194;50.950;5.346;2022-07-23T01:43:44;10.98;;;7.28;;
33902;SDS011;20194;50.950;5.346;2022-07-23T01:46:10;13.93;;;6.80;;
33902;SDS011;20194;50.950;5.346;2022-07-23T01:48:36;10.48;;;7.78;;
33902;SDS011;20194;50.950;5.346;2022-07-23T01:51:02;10.00;;;7.45;;
33902;SDS011;20194;50.950;5.346;2022-07-23T01:53:28;12.52;;;7.25;;
33902;SDS011;20194;50.950;5.346;2022-07-23T01:55:56;11.02;;;7.50;;
33902;SDS011;20194;50.950;5.346;2022-07-23T01:58:22;11.40;;;7.50;;
33902;SDS011;20194;50.950;5.346;2022-07-23T02:00:49;10.13;;;7.45;;
33902;SDS011;20194;50.950;5.346;2022-07-23T02:03:16;15.02;;;7.18;;
33902;SDS011;20194;50.950;5.346;2022-07-23T02:05:42;11.93;;;7.00;;
33902;SDS011;20194;50.950;5.346;2022-07-23T02:08:08;12.70;;;7.75;;
33902;SDS011;20194;50.950;5.346;2022-07-23T02:10:33;11.15;;;6.90;;
33902;SDS011;20194;50.950;5.346;2022-07-23T02:12:59;11.10;;;7.30;;
33902;SDS011;20194;50.950;5.346;2022-07-23T02:15:24;11.48;;;7.43;;
33902;SDS011;20194;50.950;5.346;2022-07-23T02:17:50;11.63;;;7.60;;
33902;SDS011;20194;50.950;5.346;2022-07-23T02:20:16;10.05;;;7.53;;
33902;SDS011;20194;50.950;5.346;2022-07-23T02:22:41;14.75;;;7.40;;
33902;SDS011;20194;50.950;5.346;2022-07-23T02:25:07;10.40;;;7.47;;
33902;SDS011;20194;50.950;5.346;2022-07-23T02:27:34;12.55;;;7.47;;
33902;SDS011;20194;50.950;5.346;2022-07-23T02:30:01;10.43;;;7.80;;
33902;SDS011;20194;50.950;5.346;2022-07-23T02:32:26;9.30;;;7.53;;
33902;SDS011;20194;50.950;5.346;2022-07-23T02:34:52;14.63;;;8.18;;
33902;SDS011;20194;50.950;5.346;2022-07-23T02:37:18;10.13;;;7.95;;
33902;SDS011;20194;50.950;5.346;2022-07-23T02:39:44;13.48;;;7.85;;
33902;SDS011;20194;50.950;5.346;2022-07-23T02:42:10;12.73;;;8.00;;
33902;SDS011;20194;50.950;5.346;2022-07-23T02:44:36;9.88;;;8.00;;
33902;SDS011;20194;50.950;5.346;2022-07-23T02:47:02;10.88;;;7.53;;
33902;SDS011;20194;50.950;5.346;2022-07-23T02:49:27;10.73;;;7.20;;
33902;SDS011;20194;50.950;5.346;2022-07-23T02:51:53;11.00;;;7.90;;
33902;SDS011;20194;50.950;5.346;2022-07-23T02:54:19;14.07;;;7.60;;
33902;SDS011;20194;50.950;5.346;2022-07-23T02:56:45;10.18;;;7.72;;
33902;SDS011;20194;50.950;5.346;2022-07-23T02:59:11;10.70;;;7.85;;
33902;SDS011;20194;50.950;5.346;2022-07-23T03:01:37;13.43;;;7.95;;
33902;SDS011;20194;50.950;5.346;2022-07-23T03:04:02;15.30;;;8.63;;
33902;SDS011;20194;50.950;5.346;2022-07-23T03:06:28;12.23;;;7.97;;
33902;SDS011;20194;50.950;5.346;2022-07-23T03:08:54;30.35;;;8.45;;
33902;SDS011;20194;50.950;5.346;2022-07-23T03:11:19;11.50;;;7.68;;
33902;SDS011;20194;50.950;5.346;2022-07-23T03:13:45;11.15;;;7.82;;
33902;SDS011;20194;50.950;5.346;2022-07-23T03:16:11;15.82;;;8.60;;
33902;SDS011;20194;50.950;5.346;2022-07-23T03:18:36;9.70;;;7.70;;
33902;SDS011;20194;50.950;5.346;2022-07-23T03:21:03;11.95;;;8.07;;
33902;SDS011;20194;50.950;5.346;2022-07-23T03:23:29;13.98;;;8.43;;
33902;SDS011;20194;50.950;5.346;2022-07-23T03:25:54;12.25;;;8.30;;
33902;SDS011;20194;50.950;5.346;2022-07-23T03:28:20;10.25;;;7.43;;
33902;SDS011;20194;50.950;5.346;2022-07-23T03:30:46;12.25;;;7.75;;
33902;SDS011;20194;50.950;5.346;2022-07-23T03:33:14;12.25;;;7.63;;
33902;SDS011;20194;50.950;5.346;2022-07-23T03:35:43;11.98;;;8.32;;
33902;SDS011;20194;50.950;5.346;2022-07-23T03:38:09;11.27;;;8.15;;
33902;SDS011;20194;50.950;5.346;2022-07-23T03:40:35;15.05;;;9.02;;
33902;SDS011;20194;50.950;5.346;2022-07-23T03:43:01;14.45;;;8.38;;
33902;SDS011;20194;50.950;5.346;2022-07-23T03:45:26;16.88;;;7.85;;
33902;SDS011;20194;50.950;5.346;2022-07-23T03:47:52;10.25;;;7.32;;
33902;SDS011;20194;50.950;5.346;2022-07-23T03:50:18;16.55;;;8.98;;
33902;SDS011;20194;50.950;5.346;2022-07-23T03:52:44;12.25;;;8.18;;
33902;SDS011;20194;50.950;5.346;2022-07-23T03:55:10;10.30;;;7.43;;
33902;SDS011;20194;50.950;5.346;2022-07-23T03:57:36;10.55;;;7.63;;
33902;SDS011;20194;50.950;5.346;2022-07-23T04:00:02;10.93;;;7.82;;
33902;SDS011;20194;50.950;5.346;2022-07-23T04:02:30;11.18;;;7.60;;
33902;SDS011;20194;50.950;5.346;2022-07-23T04:04:56;12.18;;;7.40;;
33902;SDS011;20194;50.950;5.346;2022-07-23T04:07:22;9.25;;;7.38;;
33902;SDS011;20194;50.950;5.346;2022-07-23T04:09:47;11.23;;;7.60;;
33902;SDS011;20194;50.950;5.346;2022-07-23T04:12:13;10.10;;;6.90;;
33902;SDS011;20194;50.950;5.346;2022-07-23T04:14:39;15.50;;;8.20;;
33902;SDS011;20194;50.950;5.346;2022-07-23T04:17:05;8.77;;;7.28;;
33902;SDS011;20194;50.950;5.346;2022-07-23T04:19:31;12.65;;;7.00;;
33902;SDS011;20194;50.950;5.346;2022-07-23T04:21:57;13.82;;;7.80;;
33902;SDS011;20194;50.950;5.346;2022-07-23T04:24:23;11.73;;;7.40;;
33902;SDS011;20194;50.950;5.346;2022-07-23T04:26:48;9.07;;;7.28;;
33902;SDS011;20194;50.950;5.346;2022-07-23T04:29:14;10.80;;;7.03;;
33902;SDS011;20194;50.950;5.346;2022-07-23T04:31:40;11.93;;;7.47;;
33902;SDS011;20194;50.950;5.346;2022-07-23T04:34:05;9.68;;;7.60;;
33902;SDS011;20194;50.950;5.346;2022-07-23T04:36:31;8.77;;;6.90;;
33902;SDS011;20194;50.950;5.346;2022-07-23T04:38:57;11.43;;;7.63;;
33902;SDS011;20194;50.950;5.346;2022-07-23T04:41:23;11.30;;;7.35;;
33902;SDS011;20194;50.950;5.346;2022-07-23T04:43:49;9.35;;;7.53;;
33902;SDS011;20194;50.950;5.346;2022-07-23T04:46:14;10.27;;;7.43;;
33902;SDS011;20194;50.950;5.346;2022-07-23T04:48:40;13.23;;;7.25;;
33902;SDS011;20194;50.950;5.346;2022-07-23T04:51:07;11.30;;;7.47;;
33902;SDS011;20194;50.950;5.346;2022-07-23T04:53:33;11.13;;;7.38;;
33902;SDS011;20194;50.950;5.346;2022-07-23T04:55:59;16.55;;;8.73;;
33902;SDS011;20194;50.950;5.346;2022-07-23T04:58:25;9.82;;;7.72;;
33902;SDS011;20194;50.950;5.346;2022-07-23T05:00:50;12.23;;;7.50;;
33902;SDS011;20194;50.950;5.346;2022-07-23T05:03:17;11.07;;;7.78;;
33902;SDS011;20194;50.950;5.346;2022-07-23T05:05:42;12.88;;;8.25;;
33902;SDS011;20194;50.950;5.346;2022-07-23T05:08:08;12.00;;;7.70;;
33902;SDS011;20194;50.950;5.346;2022-07-23T05:10:34;9.00;;;8.00;;
33902;SDS011;20194;50.950;5.346;2022-07-23T05:13:00;14.65;;;7.78;;
33902;SDS011;20194;50.950;5.346;2022-07-23T05:15:25;11.05;;;7.32;;
33902;SDS011;20194;50.950;5.346;2022-07-23T05:17:51;15.98;;;7.70;;
33902;SDS011;20194;50.950;5.346;2022-07-23T05:20:17;12.45;;;7.65;;
33902;SDS011;20194;50.950;5.346;2022-07-23T05:22:43;9.25;;;7.30;;
33902;SDS011;20194;50.950;5.346;2022-07-23T05:25:09;14.52;;;8.05;;
33902;SDS011;20194;50.950;5.346;2022-07-23T05:27:34;17.95;;;10.20;;
33902;SDS011;20194;50.950;5.346;2022-07-23T05:30:00;13.70;;;8.65;;
33902;SDS011;20194;50.950;5.346;2022-07-23T05:32:26;14.73;;;8.52;;
33902;SDS011;20194;50.950;5.346;2022-07-23T05:34:52;12.55;;;7.90;;
33902;SDS011;20194;50.950;5.346;2022-07-23T05:37:18;10.27;;;7.95;;
33902;SDS011;20194;50.950;5.346;2022-07-23T05:39:43;13.23;;;8.77;;
33902;SDS011;20194;50.950;5.346;2022-07-23T05:42:09;12.55;;;8.48;;
33902;SDS011;20194;50.950;5.346;2022-07-23T05:44:35;17.42;;;10.10;;
33902;SDS011;20194;50.950;5.346;2022-07-23T05:47:01;14.48;;;9.13;;
33902;SDS011;20194;50.950;5.346;2022-07-23T05:49:26;15.48;;;9.45;;
33902;SDS011;20194;50.950;5.346;2022-07-23T05:51:52;12.63;;;8.05;;
33902;SDS011;20194;50.950;5.346;2022-07-23T05:54:18;14.90;;;9.38;;
33902;SDS011;20194;50.950;5.346;2022-07-23T05:56:43;14.60;;;9.25;;
33902;SDS011;20194;50.950;5.346;2022-07-23T05:59:09;11.77;;;7.53;;
33902;SDS011;20194;50.950;5.346;2022-07-23T06:01:37;15.13;;;9.00;;
33902;SDS011;20194;50.950;5.346;2022-07-23T06:04:03;8.98;;;7.85;;
33902;SDS011;20194;50.950;5.346;2022-07-23T06:06:29;12.70;;;8.30;;
33902;SDS011;20194;50.950;5.346;2022-07-23T06:08:54;15.07;;;8.50;;
33902;SDS011;20194;50.950;5.346;2022-07-23T06:11:20;11.02;;;7.35;;
33902;SDS011;20194;50.950;5.346;2022-07-23T06:13:46;14.10;;;7.78;;
33902;SDS011;20194;50.950;5.346;2022-07-23T06:16:12;11.95;;;7.90;;
33902;SDS011;20194;50.950;5.346;2022-07-23T06:18:37;10.63;;;7.85;;
33902;SDS011;20194;50.950;5.346;2022-07-23T06:21:03;11.85;;;7.50;;
33902;SDS011;20194;50.950;5.346;2022-07-23T06:23:28;13.60;;;8.85;;
33902;SDS011;20194;50.950;5.346;2022-07-23T06:25:54;9.77;;;6.95;;
33902;SDS011;20194;50.950;5.346;2022-07-23T06:28:20;12.90;;;8.63;;
33902;SDS011;20194;50.950;5.346;2022-07-23T06:30:45;9.32;;;7.90;;
33902;SDS011;20194;50.950;5.346;2022-07-23T06:33:11;9.68;;;8.50;;
33902;SDS011;20194;50.950;5.346;2022-07-23T06:35:37;10.70;;;8.38;;
33902;SDS011;20194;50.950;5.346;2022-07-23T06:38:03;12.10;;;8.25;;
33902;SDS011;20194;50.950;5.346;2022-07-23T06:40:29;14.95;;;7.88;;
33902;SDS011;20194;50.950;5.346;2022-07-23T06:42:55;13.57;;;8.85;;
33902;SDS011;20194;50.950;5.346;2022-07-23T06:45:20;20.90;;;8.80;;
33902;SDS011;20194;50.950;5.346;2022-07-23T06:47:47;10.10;;;7.72;;
33902;SDS011;20194;50.950;5.346;2022-07-23T06:50:13;9.43;;;6.82;;
33902;SDS011;20194;50.950;5.346;2022-07-23T06:52:38;10.65;;;6.18;;
33902;SDS011;20194;50.950;5.346;2022-07-23T06:55:05;13.07;;;8.48;;
33902;SDS011;20194;50.950;5.346;2022-07-23T06:57:31;14.88;;;8.35;;
33902;SDS011;20194;50.950;5.346;2022-07-23T06:59:56;12.18;;;8.52;;
33902;SDS011;20194;50.950;5.346;2022-07-23T07:02:22;17.33;;;9.57;;
33902;SDS011;20194;50.950;5.346;2022-07-23T07:04:48;12.57;;;8.50;;
33902;SDS011;20194;50.950;5.346;2022-07-23T07:07:14;14.25;;;9.52;;
33902;SDS011;20194;50.950;5.346;2022-07-23T07:09:40;17.17;;;9.57;;
33902;SDS011;20194;50.950;5.346;2022-07-23T07:12:05;12.88;;;10.05;;
33902;SDS011;20194;50.950;5.346;2022-07-23T07:14:31;13.90;;;9.48;;
33902;SDS011;20194;50.950;5.346;2022-07-23T07:16:57;15.45;;;9.95;;
33902;SDS011;20194;50.950;5.346;2022-07-23T07:19:22;14.13;;;8.73;;
33902;SDS011;20194;50.950;5.346;2022-07-23T07:21:49;14.60;;;8.80;;
33902;SDS011;20194;50.950;5.346;2022-07-23T07:24:14;14.35;;;8.35;;
33902;SDS011;20194;50.950;5.346;2022-07-23T07:26:40;10.93;;;6.97;;
33902;SDS011;20194;50.950;5.346;2022-07-23T07:29:06;19.27;;;10.38;;
33902;SDS011;20194;50.950;5.346;2022-07-23T07:31:31;9.98;;;8.02;;
33902;SDS011;20194;50.950;5.346;2022-07-23T07:33:57;15.32;;;9.02;;
33902;SDS011;20194;50.950;5.346;2022-07-23T07:36:23;13.90;;;9.55;;
33902;SDS011;20194;50.950;5.346;2022-07-23T07:38:49;15.43;;;9.30;;
33902;SDS011;20194;50.950;5.346;2022-07-23T07:41:15;18.05;;;9.45;;
33902;SDS011;20194;50.950;5.346;2022-07-23T07:43:41;14.73;;;8.50;;
33902;SDS011;20194;50.950;5.346;2022-07-23T07:46:06;15.48;;;9.20;;
33902;SDS011;20194;50.950;5.346;2022-07-23T07:48:36;10.45;;;5.90;;
33902;SDS011;20194;50.950;5.346;2022-07-23T07:51:03;6.90;;;4.88;;
33902;SDS011;20194;50.950;5.346;2022-07-23T07:53:29;8.75;;;6.88;;
33902;SDS011;20194;50.950;5.346;2022-07-23T07:55:55;10.98;;;6.20;;
33902;SDS011;20194;50.950;5.346;2022-07-23T07:58:21;9.82;;;4.78;;
33902;SDS011;20194;50.950;5.346;2022-07-23T08:00:47;8.07;;;5.82;;
33902;SDS011;20194;50.950;5.346;2022-07-23T08:03:13;9.80;;;5.47;;
33902;SDS011;20194;50.950;5.346;2022-07-23T08:05:38;10.65;;;7.65;;
33902;SDS011;20194;50.950;5.346;2022-07-23T08:08:04;8.43;;;5.25;;
33902;SDS011;20194;50.950;5.346;2022-07-23T08:10:30;9.25;;;5.03;;
33902;SDS011;20194;50.950;5.346;2022-07-23T08:12:59;10.13;;;3.97;;
33902;SDS011;20194;50.950;5.346;2022-07-23T08:15:26;14.55;;;7.43;;
33902;SDS011;20194;50.950;5.346;2022-07-23T08:17:53;10.00;;;5.70;;
33902;SDS011;20194;50.950;5.346;2022-07-23T08:20:19;6.18;;;4.50;;
33902;SDS011;20194;50.950;5.346;2022-07-23T08:23:07;11.48;;;7.20;;
33902;SDS011;20194;50.950;5.346;2022-07-23T08:25:34;20.77;;;7.75;;
33902;SDS011;20194;50.950;5.346;2022-07-23T08:28:02;10.38;;;6.00;;
33902;SDS011;20194;50.950;5.346;2022-07-23T08:30:29;8.48;;;5.75;;
33902;SDS011;20194;50.950;5.346;2022-07-23T08:33:03;12.07;;;6.88;;
33902;SDS011;20194;50.950;5.346;2022-07-23T08:35:33;7.05;;;4.40;;
33902;SDS011;20194;50.950;5.346;2022-07-23T08:38:01;8.57;;;5.90;;
33902;SDS011;20194;50.950;5.346;2022-07-23T08:40:29;11.27;;;5.85;;
33902;SDS011;20194;50.950;5.346;2022-07-23T08:42:56;11.23;;;5.85;;
33902;SDS011;20194;50.950;5.346;2022-07-23T08:45:23;9.20;;;6.55;;
33902;SDS011;20194;50.950;5.346;2022-07-23T08:47:55;9.02;;;5.50;;
33902;SDS011;20194;50.950;5.346;2022-07-23T08:50:24;13.00;;;6.45;;
33902;SDS011;20194;50.950;5.346;2022-07-23T08:52:51;10.88;;;7.53;;
33902;SDS011;20194;50.950;5.346;2022-07-23T08:55:19;13.20;;;5.95;;
33902;SDS011;20194;50.950;5.346;2022-07-23T08:57:49;9.23;;;6.95;;
33902;SDS011;20194;50.950;5.346;2022-07-23T09:00:17;10.85;;;5.40;;
33902;SDS011;20194;50.950;5.346;2022-07-23T09:02:44;10.10;;;6.07;;
33902;SDS011;20194;50.950;5.346;2022-07-23T09:05:11;8.88;;;5.95;;
33902;SDS011;20194;50.950;5.346;2022-07-23T09:08:03;8.98;;;6.43;;
33902;SDS011;20194;50.950;5.346;2022-07-23T09:15:59;8.02;;;5.57;;
33902;SDS011;20194;50.950;5.346;2022-07-23T09:18:39;9.35;;;5.57;;
33902;SDS011;20194;50.950;5.346;2022-07-23T09:21:09;11.05;;;6.85;;
33902;SDS011;20194;50.950;5.346;2022-07-23T09:23:36;9.13;;;6.50;;
33902;SDS011;20194;50.950;5.346;2022-07-23T09:29:02;8.65;;;6.30;;
33902;SDS011;20194;50.950;5.346;2022-07-23T09:31:34;6.85;;;4.47;;
33902;SDS011;20194;50.950;5.346;2022-07-23T09:34:23;10.32;;;6.07;;
33902;SDS011;20194;50.950;5.346;2022-07-23T09:37:13;9.05;;;5.43;;
33902;SDS011;20194;50.950;5.346;2022-07-23T09:39:41;10.10;;;6.68;;
33902;SDS011;20194;50.950;5.346;2022-07-23T09:42:15;8.63;;;5.50;;
33902;SDS011;20194;50.950;5.346;2022-07-23T09:44:51;7.10;;;5.00;;
33902;SDS011;20194;50.950;5.346;2022-07-23T09:47:18;5.78;;;4.47;;
33902;SDS011;20194;50.950;5.346;2022-07-23T09:52:43;7.50;;;5.97;;
33902;SDS011;20194;50.950;5.346;2022-07-23T09:55:13;8.18;;;5.85;;
33902;SDS011;20194;50.950;5.346;2022-07-23T09:57:43;6.38;;;4.78;;
33902;SDS011;20194;50.950;5.346;2022-07-23T10:00:15;4.38;;;3.90;;
33902;SDS011;20194;50.950;5.346;2022-07-23T10:02:41;6.07;;;4.05;;
33902;SDS011;20194;50.950;5.346;2022-07-23T10:05:10;10.13;;;5.57;;
33902;SDS011;20194;50.950;5.346;2022-07-23T10:07:37;9.50;;;5.28;;
33902;SDS011;20194;50.950;5.346;2022-07-23T10:10:04;8.15;;;4.57;;
33902;SDS011;20194;50.950;5.346;2022-07-23T10:12:31;5.53;;;4.00;;
33902;SDS011;20194;50.950;5.346;2022-07-23T10:15:06;8.55;;;3.67;;
33902;SDS011;20194;50.950;5.346;2022-07-23T10:17:33;7.85;;;4.90;;
33902;SDS011;20194;50.950;5.346;2022-07-23T10:19:59;5.22;;;3.58;;
33902;SDS011;20194;50.950;5.346;2022-07-23T10:22:29;10.75;;;4.18;;
33902;SDS011;20194;50.950;5.346;2022-07-23T10:41:30;5.15;;;2.83;;
33902;SDS011;20194;50.950;5.346;2022-07-23T10:44:10;5.45;;;2.97;;
33902;SDS011;20194;50.950;5.346;2022-07-23T10:49:47;5.45;;;3.10;;
33902;SDS011;20194;50.950;5.346;2022-07-23T10:54:40;6.57;;;3.00;;
33902;SDS011;20194;50.950;5.346;2022-07-23T10:57:08;5.50;;;3.00;;
33902;SDS011;20194;50.950;5.346;2022-07-23T11:02:35;3.85;;;3.30;;
33902;SDS011;20194;50.950;5.346;2022-07-23T11:05:05;5.85;;;3.10;;
33902;SDS011;20194;50.950;5.346;2022-07-23T11:07:33;6.65;;;3.22;;
33902;SDS011;20194;50.950;5.346;2022-07-23T11:10:00;6.25;;;2.80;;
33902;SDS011;20194;50.950;5.346;2022-07-23T11:20:12;2.63;;;1.90;;
33902;SDS011;20194;50.950;5.346;2022-07-23T11:25:10;3.33;;;2.15;;
33902;SDS011;20194;50.950;5.346;2022-07-23T11:27:56;3.63;;;1.77;;
33902;SDS011;20194;50.950;5.346;2022-07-23T11:30:41;4.60;;;2.35;;
33902;SDS011;20194;50.950;5.346;2022-07-23T11:35:39;5.22;;;2.80;;
33902;SDS011;20194;50.950;5.346;2022-07-23T11:38:13;4.05;;;2.03;;
33902;SDS011;20194;50.950;5.346;2022-07-23T11:40:45;5.30;;;2.05;;
33902;SDS011;20194;50.950;5.346;2022-07-23T11:43:13;4.47;;;2.70;;
33902;SDS011;20194;50.950;5.346;2022-07-23T11:45:40;6.20;;;1.77;;
33902;SDS011;20194;50.950;5.346;2022-07-23T11:48:18;6.10;;;2.33;;
33902;SDS011;20194;50.950;5.346;2022-07-23T11:50:48;3.05;;;1.73;;
33902;SDS011;20194;50.950;5.346;2022-07-23T11:53:21;2.22;;;1.80;;
33902;SDS011;20194;50.950;5.346;2022-07-23T11:55:47;2.70;;;1.70;;
33902;SDS011;20194;50.950;5.346;2022-07-23T11:58:13;4.55;;;1.90;;
33902;SDS011;20194;50.950;5.346;2022-07-23T12:00:40;2.30;;;1.63;;
33902;SDS011;20194;50.950;5.346;2022-07-23T12:03:06;5.55;;;1.45;;
33902;SDS011;20194;50.950;5.346;2022-07-23T12:05:33;1.50;;;1.27;;
33902;SDS011;20194;50.950;5.346;2022-07-23T12:08:00;2.75;;;1.40;;
33902;SDS011;20194;50.950;5.346;2022-07-23T12:10:38;3.50;;;1.38;;
33902;SDS011;20194;50.950;5.346;2022-07-23T12:13:13;2.92;;;1.60;;
33902;SDS011;20194;50.950;5.346;2022-07-23T12:15:42;1.17;;;1.08;;
33902;SDS011;20194;50.950;5.346;2022-07-23T12:18:17;1.60;;;1.10;;
33902;SDS011;20194;50.950;5.346;2022-07-23T12:20:46;2.45;;;1.45;;
33902;SDS011;20194;50.950;5.346;2022-07-23T12:23:14;1.60;;;1.50;;
33902;SDS011;20194;50.950;5.346;2022-07-23T12:25:44;1.63;;;1.45;;
33902;SDS011;20194;50.950;5.346;2022-07-23T12:28:11;2.70;;;1.45;;
33902;SDS011;20194;50.950;5.346;2022-07-23T12:30:50;2.65;;;1.42;;
33902;SDS011;20194;50.950;5.346;2022-07-23T12:35:57;1.88;;;1.63;;
33902;SDS011;20194;50.950;5.346;2022-07-23T12:38:24;2.38;;;1.70;;
33902;SDS011;20194;50.950;5.346;2022-07-23T12:40:53;1.92;;;1.67;;
33902;SDS011;20194;50.950;5.346;2022-07-23T12:43:24;2.75;;;1.70;;
33902;SDS011;20194;50.950;5.346;2022-07-23T12:48:28;2.67;;;1.80;;
33902;SDS011;20194;50.950;5.346;2022-07-23T12:51:00;3.88;;;2.08;;
33902;SDS011;20194;50.950;5.346;2022-07-23T12:55:59;3.22;;;1.75;;
33902;SDS011;20194;50.950;5.346;2022-07-23T12:58:54;1.88;;;1.70;;
33902;SDS011;20194;50.950;5.346;2022-07-23T13:06:28;1.85;;;1.60;;
33902;SDS011;20194;50.950;5.346;2022-07-23T13:09:01;5.28;;;1.80;;
33902;SDS011;20194;50.950;5.346;2022-07-23T13:11:29;5.32;;;1.88;;
33902;SDS011;20194;50.950;5.346;2022-07-23T13:13:54;3.10;;;1.83;;
33902;SDS011;20194;50.950;5.346;2022-07-23T13:16:20;2.40;;;1.63;;
33902;SDS011;20194;50.950;5.346;2022-07-23T13:18:46;2.83;;;1.85;;
33902;SDS011;20194;50.950;5.346;2022-07-23T13:21:12;2.63;;;1.80;;
33902;SDS011;20194;50.950;5.346;2022-07-23T13:23:38;3.05;;;2.30;;
33902;SDS011;20194;50.950;5.346;2022-07-23T13:26:04;3.28;;;2.08;;
33902;SDS011;20194;50.950;5.346;2022-07-23T13:28:30;4.68;;;2.10;;
33902;SDS011;20194;50.950;5.346;2022-07-23T13:30:55;3.88;;;2.20;;
33902;SDS011;20194;50.950;5.346;2022-07-23T13:33:23;5.90;;;2.25;;
33902;SDS011;20194;50.950;5.346;2022-07-23T13:35:50;3.55;;;2.40;;
33902;SDS011;20194;50.950;5.346;2022-07-23T13:38:16;3.80;;;2.33;;
33902;SDS011;20194;50.950;5.346;2022-07-23T13:40:44;9.32;;;2.80;;
33902;SDS011;20194;50.950;5.346;2022-07-23T13:43:14;5.15;;;2.65;;
33902;SDS011;20194;50.950;5.346;2022-07-23T13:45:42;3.78;;;2.58;;
33902;SDS011;20194;50.950;5.346;2022-07-23T13:48:09;5.72;;;2.85;;
33902;SDS011;20194;50.950;5.346;2022-07-23T13:50:36;3.80;;;2.60;;
33902;SDS011;20194;50.950;5.346;2022-07-23T13:53:04;4.97;;;2.85;;
33902;SDS011;20194;50.950;5.346;2022-07-23T13:55:32;4.32;;;2.58;;
33902;SDS011;20194;50.950;5.346;2022-07-23T13:57:58;3.72;;;2.63;;
33902;SDS011;20194;50.950;5.346;2022-07-23T14:00:25;3.97;;;2.38;;
33902;SDS011;20194;50.950;5.346;2022-07-23T14:02:51;7.25;;;3.35;;
33902;SDS011;20194;50.950;5.346;2022-07-23T14:05:18;4.75;;;3.03;;
33902;SDS011;20194;50.950;5.346;2022-07-23T14:07:43;7.05;;;2.85;;
33902;SDS011;20194;50.950;5.346;2022-07-23T14:10:09;8.82;;;5.68;;
33902;SDS011;20194;50.950;5.346;2022-07-23T14:12:36;6.32;;;2.45;;
33902;SDS011;20194;50.950;5.346;2022-07-23T14:15:03;2.53;;;2.33;;
33902;SDS011;20194;50.950;5.346;2022-07-23T14:17:30;2.60;;;2.40;;
33902;SDS011;20194;50.950;5.346;2022-07-23T14:19:58;4.93;;;2.92;;
33902;SDS011;20194;50.950;5.346;2022-07-23T14:22:24;4.28;;;3.03;;
33902;SDS011;20194;50.950;5.346;2022-07-23T14:24:50;2.30;;;2.00;;
33902;SDS011;20194;50.950;5.346;2022-07-23T14:27:16;3.05;;;2.63;;
33902;SDS011;20194;50.950;5.346;2022-07-23T14:29:42;5.38;;;2.67;;
33902;SDS011;20194;50.950;5.346;2022-07-23T14:32:08;5.53;;;2.90;;
33902;SDS011;20194;50.950;5.346;2022-07-23T14:34:34;5.65;;;3.50;;
33902;SDS011;20194;50.950;5.346;2022-07-23T14:37:00;2.67;;;2.47;;
33902;SDS011;20194;50.950;5.346;2022-07-23T14:39:26;3.92;;;2.50;;
33902;SDS011;20194;50.950;5.346;2022-07-23T14:41:52;4.45;;;3.28;;
33902;SDS011;20194;50.950;5.346;2022-07-23T14:44:18;3.50;;;2.70;;
33902;SDS011;20194;50.950;5.346;2022-07-23T14:46:43;4.63;;;2.50;;
33902;SDS011;20194;50.950;5.346;2022-07-23T14:49:09;11.23;;;4.60;;
33902;SDS011;20194;50.950;5.346;2022-07-23T14:51:35;7.22;;;2.60;;
33902;SDS011;20194;50.950;5.346;2022-07-23T14:54:01;3.35;;;3.03;;
33902;SDS011;20194;50.950;5.346;2022-07-23T14:56:28;67.60;;;30.52;;
33902;SDS011;20194;50.950;5.346;2022-07-23T14:58:54;3.92;;;2.50;;
33902;SDS011;20194;50.950;5.346;2022-07-23T15:01:21;3.20;;;2.42;;
33902;SDS011;20194;50.950;5.346;2022-07-23T15:03:48;6.70;;;2.70;;
33902;SDS011;20194;50.950;5.346;2022-07-23T15:06:15;6.03;;;2.88;;
33902;SDS011;20194;50.950;5.346;2022-07-23T15:08:41;6.22;;;2.50;;
33902;SDS011;20194;50.950;5.346;2022-07-23T15:11:07;6.35;;;2.55;;
33902;SDS011;20194;50.950;5.346;2022-07-23T15:13:36;6.40;;;3.30;;
33902;SDS011;20194;50.950;5.346;2022-07-23T15:16:02;4.43;;;3.03;;
33902;SDS011;20194;50.950;5.346;2022-07-23T15:18:29;4.32;;;2.70;;
33902;SDS011;20194;50.950;5.346;2022-07-23T15:20:55;5.65;;;3.00;;
33902;SDS011;20194;50.950;5.346;2022-07-23T15:23:21;7.75;;;3.20;;
33902;SDS011;20194;50.950;5.346;2022-07-23T15:25:47;4.53;;;2.90;;
33902;SDS011;20194;50.950;5.346;2022-07-23T15:28:13;4.65;;;2.80;;
33902;SDS011;20194;50.950;5.346;2022-07-23T15:30:38;6.63;;;2.80;;
33902;SDS011;20194;50.950;5.346;2022-07-23T15:33:11;5.75;;;2.80;;
33902;SDS011;20194;50.950;5.346;2022-07-23T15:35:37;7.28;;;2.70;;
33902;SDS011;20194;50.950;5.346;2022-07-23T15:38:04;4.20;;;2.95;;
33902;SDS011;20194;50.950;5.346;2022-07-23T15:40:30;3.30;;;3.00;;
33902;SDS011;20194;50.950;5.346;2022-07-23T15:42:56;3.63;;;3.33;;